Accueil
METAR-TAF:

METAR-TAF

Aéroports :

Aéroport international Laâyoune - Hassan Ier

Laâyoune, Maroc

latitude: 27-10N, longitude: 013-12-59W, altitude: 6 m

Observation

Le bulletin a été fait il y a 11 minutes, à 23:00 UTC
Vent 12 kt de nord/nord-est
Température 20°C
Humidité 94%
Pression 1018 hPa
Visibilité 10 km ou plus
Nuages épars à une hauteur de 2000 ft

METAR: GMML 032300Z 02012KT 9999 SCT020 20/19 Q1018 NOSIG

Heure: 00:11 (23:11 UTC)

Prévision

Le bulletin a été fait il y a 6 heures et 11 minutes, à 17:00 UTC
Prévision valable du 03 à 18 UTC au 04 à 24 UTC
Vent 18 kt de nord
Visibilité: 8000 m
Quelques nuages à une hauteur de 2300 ft

TAF: GMML 031700Z 0318/0424 36018KT 8000 FEW023

Observations et prévisions météorologiques de plus de 4000 aéroports (messages METAR et TAF).

Les stations disponibles sont représentées par des disques jaunes et rouges sur la carte.

Passer la souris dessus pour voir le nom de la station.

Cliquer dessus pour voir les observations et prévisions météorologiques.

Pour changer de carte: cliquez sur les boutons verts avec une croix noire pour zoomer, sur le bouton vert avec un tiret pour effectuer un zoom arrière, ou sur les flèches vertes pour les cartes adjacentes.


METAR-TAF: